Lakes Entrance Composite, Australia
Current Conditions -  °F | °C
As of 5:00 PM on Monday 26 Jan 2015 (Local Time) from YCOM Reporting Station
Overcast Overcast  
Wind Chill: 55°   Ceiling: 2400
Heat Index: 55°   Visibility: NA
Dew Point: 46°   Wind: 16mph
Humidity: 72%   Direction: 100°E
Pressure: 29.97"   Gusts: NA
Location:  37.87°S, 147.98°E
Report Text: YCOM 260600Z AUTO 10014KT //// // OVC024 13/08 Q1015
Loading
Personal Weather Stations






























Interactive Weather Map New forecast layout! Learn more

10-Day Weather Forecast

Advertisements
Track Severe Weather on mobile